createdAt,value
2022-10-22T00:01:11.940Z,53.16
2022-10-22T00:11:18.821Z,53.90
2022-10-22T00:21:21.957Z,54.31
2022-10-22T00:31:26.493Z,54.18
2022-10-22T00:41:29.694Z,55.41
2022-10-22T00:51:35.900Z,55.73
2022-10-22T01:01:39.115Z,57.08
2022-10-22T01:11:54.313Z,57.37
2022-10-22T01:22:00.178Z,57.84
2022-10-22T01:32:09.962Z,57.75
2022-10-22T01:42:13.717Z,58.01
2022-10-22T01:52:27.929Z,58.29
2022-10-22T02:02:40.681Z,58.25
2022-10-22T02:12:46.240Z,59.23
2022-10-22T02:22:49.517Z,58.34
2022-10-22T02:32:59.016Z,58.64
2022-10-22T02:43:02.376Z,58.41
2022-10-22T02:53:06.824Z,58.79
2022-10-22T03:03:09.947Z,58.79
2022-10-22T03:13:14.487Z,59.25
2022-10-22T03:23:20.211Z,60.03
2022-10-22T03:33:24.750Z,61.90
2022-10-22T03:43:28.080Z,61.34
2022-10-22T03:53:32.681Z,61.46
2022-10-22T04:03:35.879Z,61.99
2022-10-22T04:13:40.614Z,61.73
2022-10-22T04:23:46.264Z,62.31
2022-10-22T04:33:54.016Z,62.41
2022-10-22T04:43:57.763Z,62.33
2022-10-22T04:54:02.602Z,62.43
2022-10-22T05:04:07.226Z,62.57
2022-10-22T05:14:12.021Z,62.94
2022-10-22T05:24:15.231Z,63.04
2022-10-22T05:34:19.634Z,63.60
2022-10-22T05:44:22.723Z,63.78
2022-10-22T05:54:27.443Z,63.57
2022-10-22T06:04:30.535Z,63.71
2022-10-22T06:14:34.992Z,63.91
2022-10-22T06:24:40.459Z,63.60
2022-10-22T06:34:48.283Z,63.40
2022-10-22T06:44:51.486Z,62.89
2022-10-22T06:54:55.976Z,62.04
2022-10-22T07:04:59.007Z,60.33
2022-10-22T07:15:03.520Z,56.70
2022-10-22T07:25:07.594Z,56.15
2022-10-22T07:35:12.303Z,56.87
2022-10-22T07:45:15.456Z,57.25
2022-10-22T07:55:20.224Z,56.49
2022-10-22T08:05:23.390Z,51.64
2022-10-22T08:15:28.174Z,49.45
2022-10-22T08:25:31.672Z,47.82
2022-10-22T08:35:36.359Z,45.86
2022-10-22T08:45:42.309Z,45.11
2022-10-22T08:55:46.927Z,45.77
2022-10-22T09:05:57.796Z,46.39
2022-10-22T09:16:10.108Z,46.22
2022-10-22T09:26:15.754Z,46.38
2022-10-22T09:36:23.605Z,46.57
2022-10-22T09:46:30.154Z,45.76
2022-10-22T09:56:37.750Z,45.19
2022-10-22T10:06:42.458Z,45.30
2022-10-22T10:16:57.905Z,45.44
2022-10-22T10:27:04.352Z,45.81
2022-10-22T10:37:18.244Z,45.59
2022-10-22T10:47:33.526Z,44.50
2022-10-22T10:57:43.626Z,45.01
2022-10-22T11:07:54.953Z,45.78
2022-10-22T11:18:04.590Z,45.76
2022-10-22T11:28:12.830Z,45.32
2022-10-22T11:38:19.008Z,46.48
2022-10-22T11:48:28.310Z,46.58
2022-10-22T11:58:35.148Z,45.64
2022-10-22T12:08:43.624Z,46.24
2022-10-22T12:18:48.345Z,46.17
2022-10-22T12:28:51.494Z,46.33
2022-10-22T12:38:56.229Z,47.21
2022-10-22T12:49:01.068Z,46.13
2022-10-22T12:59:09.119Z,46.60
2022-10-22T13:09:20.441Z,47.59
2022-10-22T13:19:49.233Z,48.34
2022-10-22T13:29:52.515Z,49.42
2022-10-22T13:39:56.947Z,49.01
2022-10-22T13:50:04.118Z,49.66
2022-10-22T14:00:12.643Z,50.48
2022-10-22T14:10:17.862Z,50.35
2022-10-22T14:20:24.228Z,51.03
2022-10-22T14:30:29.656Z,51.58
2022-10-22T14:40:34.241Z,51.21
2022-10-22T14:50:37.272Z,52.71
2022-10-22T15:00:43.569Z,51.74
2022-10-22T15:10:46.855Z,53.12
2022-10-22T15:20:57.987Z,54.03
2022-10-22T15:31:01.796Z,55.16
2022-10-22T15:41:07.486Z,56.36
2022-10-22T15:51:12.936Z,58.25
2022-10-22T16:01:17.447Z,60.52
2022-10-22T16:11:20.616Z,61.73
2022-10-22T16:21:25.698Z,63.80
2022-10-22T16:31:29.165Z,65.05
2022-10-22T16:41:36.309Z,65.75
2022-10-22T16:51:39.525Z,66.94
2022-10-22T17:01:43.995Z,66.71
2022-10-22T17:11:47.413Z,67.18
2022-10-22T17:21:53.541Z,66.95
2022-10-22T17:31:56.845Z,68.34
2022-10-22T17:42:01.673Z,67.99
2022-10-22T17:52:04.923Z,68.08
2022-10-22T18:02:11.228Z,68.34
2022-10-22T18:12:14.857Z,69.14
2022-10-22T18:22:19.295Z,68.46
2022-10-22T18:32:22.488Z,69.36
2022-10-22T18:42:30.439Z,68.86
2022-10-22T18:52:36.256Z,69.20
2022-10-22T19:02:41.169Z,68.85
2022-10-22T19:12:44.603Z,69.25
2022-10-22T19:22:50.842Z,71.49
2022-10-22T19:32:54.564Z,69.42
2022-10-22T19:42:59.129Z,69.23
2022-10-22T19:53:02.607Z,69.95
2022-10-22T20:03:07.471Z,68.59
2022-10-22T20:13:10.659Z,68.45
2022-10-22T20:23:15.166Z,69.37
2022-10-22T20:33:18.225Z,69.71
2022-10-22T20:43:22.661Z,69.12
2022-10-22T20:53:26.094Z,69.56
2022-10-22T21:03:30.542Z,71.93
2022-10-22T21:13:33.843Z,72.46
2022-10-22T21:23:38.413Z,71.37
2022-10-22T21:33:41.574Z,71.46
2022-10-22T21:43:46.686Z,69.55
2022-10-22T21:53:49.841Z,68.57
2022-10-22T22:03:54.458Z,70.27
2022-10-22T22:13:58.913Z,72.04
2022-10-22T22:24:04.135Z,71.20
2022-10-22T22:34:08.753Z,70.84
2022-10-22T22:44:13.307Z,69.30
2022-10-22T22:54:16.410Z,69.41
2022-10-22T23:04:23.806Z,69.06
2022-10-22T23:14:26.991Z,69.06
2022-10-22T23:24:31.541Z,68.83
2022-10-22T23:34:34.834Z,71.80
2022-10-22T23:44:39.337Z,72.75
2022-10-22T23:54:42.723Z,73.57
